メインページ
METAR-TAF:

METAR-TAF

空港 :

パリ=シャルル・ド・ゴール空港

パリチャールズ・ドゴール, フランス

緯度: 49-01N, 経度: 002-32E, 海抜: 118m

現時点の気象観測

当レポートは44分前の05:00(UTC)に作成
の風 6kt
気温 5°C
湿度 93%
気圧 1034 hPa
視程: 7000m

METAR: LFPG 210500Z 01006KT 7000 NSC 05/04 Q1034 TEMPO 4000 BR

時間: 06:44 (05:44 UTC)

予報

当レポートは6時間44分前の23:00(UTC)に作成
予報は21日の 00時(UTC)から 22日の 06時(UTC)まで有効
北東の風 4kt
視程10km以上
1,500メートル以下は雲なし、積乱雲なし
確率 40%
21日の 03時(UTC)から 21日の 05時(UTC)まで
視程: 4000m
21日の 05時(UTC)から 21日の 06時(UTC)まで徐々に
視程: 2000m
確率 40% :
21日の 05時(UTC)から 21日の 08時(UTC)まで一時的に
視程: 0800m
高度100ftの千切れ雲あり
21日の 08時(UTC)から 21日の 09時(UTC)まで徐々に
視程: 8000m
22日の 00時(UTC)から 22日の 02時(UTC)まで徐々に
視程: 1500m
22日の 02時(UTC)から 22日の 04時(UTC)まで徐々に
視程: 0600m

TAF: LFPG 202300Z 2100/2206 04004KT CAVOK TX16/2115Z TN04/2105Z PROB40 2103/2105 4000 BR BECMG 2105/2106 2000 BR PROB40 TEMPO 2105/2108 0800 FG BKN001 BECMG 2108/2109 8000 NSW BECMG 2200/2202 1500 BR BECMG 2202/2204 0600 FG VV///

4,000以上の空港の気象観測と天気予報(METAR報とTAF報)

利用可能な観測所は地図上に黄色い丸と赤い丸で示す。

丸の上にカーソルを重ねると観測所名を参照できる。

次にクリックすると気象観測と天気予報を参照できる。

マップの切り替え:黒色「×」印の緑ボタンをクリックして拡大、「-」印の緑ボタンをクリックして縮小、緑色の三角印をクリックして隣りの地図に切り替え


METAR-TAF: